createdAt,value
2018-04-08T00:00:02.982Z,10.07
2018-04-08T00:02:31.295Z,6.12
2018-04-08T00:04:58.822Z,8.40
2018-04-08T00:07:27.106Z,7.18
2018-04-08T00:09:55.453Z,11.60
2018-04-08T00:12:22.987Z,7.85
2018-04-08T00:14:50.508Z,5.18
2018-04-08T00:17:18.813Z,4.60
2018-04-08T00:19:46.326Z,10.43
2018-04-08T00:22:14.604Z,8.60
2018-04-08T00:24:42.918Z,10.50
2018-04-08T00:27:10.426Z,8.05
2018-04-08T00:29:37.942Z,8.05
2018-04-08T00:32:05.493Z,8.40
2018-04-08T00:34:33.015Z,6.45
2018-04-08T00:37:01.311Z,7.90
2018-04-08T00:39:28.888Z,8.18
2018-04-08T00:41:56.407Z,7.35
2018-04-08T00:44:23.932Z,9.40
2018-04-08T00:46:51.494Z,8.32
2018-04-08T00:49:19.023Z,10.50
2018-04-08T00:51:46.535Z,6.50
2018-04-08T00:54:25.988Z,7.12
2018-04-08T00:56:54.264Z,7.18
2018-04-08T00:59:22.561Z,15.13
2018-04-08T01:01:50.117Z,10.15
2018-04-08T01:04:17.663Z,9.02
2018-04-08T01:06:45.194Z,5.12
2018-04-08T01:09:12.729Z,9.15
2018-04-08T01:11:40.259Z,8.23
2018-04-08T01:14:07.775Z,9.50
2018-04-08T01:16:35.326Z,7.72
2018-04-08T01:19:02.855Z,11.43
2018-04-08T01:21:30.358Z,5.43
2018-04-08T01:23:57.899Z,6.70
2018-04-08T01:26:25.436Z,9.60
2018-04-08T01:28:52.956Z,6.72
2018-04-08T01:31:21.254Z,8.40
2018-04-08T01:33:48.753Z,10.90
2018-04-08T01:36:16.263Z,8.35
2018-04-08T01:38:43.797Z,6.50
2018-04-08T01:41:12.073Z,6.03
2018-04-08T01:43:40.368Z,6.05
2018-04-08T01:46:08.661Z,6.50
2018-04-08T01:48:36.172Z,8.07
2018-04-08T01:51:03.674Z,9.20
2018-04-08T01:53:31.211Z,5.82
2018-04-08T01:55:59.512Z,7.10
2018-04-08T01:58:27.048Z,9.85
2018-04-08T02:00:55.356Z,10.60
2018-04-08T02:03:22.865Z,7.28
2018-04-08T02:05:50.411Z,7.03
2018-04-08T02:08:17.932Z,8.05
2018-04-08T02:10:45.449Z,6.85
2018-04-08T02:13:13.741Z,8.50
2018-04-08T02:15:42.023Z,6.87
2018-04-08T02:18:09.571Z,7.10
2018-04-08T02:20:37.847Z,7.18
2018-04-08T02:23:06.147Z,5.47
2018-04-08T02:25:33.712Z,8.32
2018-04-08T02:28:01.248Z,9.38
2018-04-08T02:30:29.546Z,5.55
2018-04-08T02:32:57.068Z,7.32
2018-04-08T02:35:25.352Z,8.52
2018-04-08T02:37:53.644Z,8.70
2018-04-08T02:40:21.174Z,6.37
2018-04-08T02:42:49.511Z,7.15
2018-04-08T02:45:17.035Z,7.50
2018-04-08T02:47:45.315Z,6.10
2018-04-08T02:50:12.867Z,8.70
2018-04-08T02:52:41.154Z,7.05
2018-04-08T02:55:08.690Z,7.35
2018-04-08T02:57:36.978Z,8.05
2018-04-08T03:00:05.307Z,10.00
2018-04-08T03:02:32.810Z,6.80
2018-04-08T03:05:01.093Z,6.60
2018-04-08T03:07:29.393Z,8.75
2018-04-08T03:09:56.930Z,7.60
2018-04-08T03:12:24.454Z,7.28
2018-04-08T03:14:51.982Z,7.45
2018-04-08T03:17:19.487Z,10.73
2018-04-08T03:19:47.810Z,8.80
2018-04-08T03:22:15.331Z,8.70
2018-04-08T03:24:43.613Z,6.55
2018-04-08T03:27:11.923Z,8.80
2018-04-08T03:29:39.443Z,13.30
2018-04-08T03:32:07.751Z,7.62
2018-04-08T03:34:35.266Z,9.40
2018-04-08T03:37:03.556Z,17.52
2018-04-08T03:39:31.109Z,7.22
2018-04-08T03:41:59.385Z,6.80
2018-04-08T03:44:27.696Z,6.70
2018-04-08T03:46:55.210Z,7.12
2018-04-08T03:49:22.731Z,7.62
2018-04-08T03:51:50.256Z,11.35
2018-04-08T03:54:17.769Z,6.80
2018-04-08T03:56:45.328Z,10.40
2018-04-08T03:59:12.837Z,8.48
2018-04-08T04:01:40.462Z,6.75
2018-04-08T04:04:07.994Z,8.02
2018-04-08T04:06:35.517Z,17.77
2018-04-08T04:09:03.061Z,8.38
2018-04-08T04:11:31.345Z,15.35
2018-04-08T04:13:59.631Z,10.00
2018-04-08T04:16:27.156Z,5.18
2018-04-08T04:19:06.694Z,4.62
2018-04-08T04:21:46.080Z,8.15
2018-04-08T04:24:25.498Z,39.50
2018-04-08T04:26:53.769Z,15.13
2018-04-08T04:29:22.055Z,11.20
2018-04-08T04:31:49.580Z,19.27
2018-04-08T04:34:17.094Z,7.25
2018-04-08T04:36:44.632Z,7.37
2018-04-08T04:39:12.157Z,7.25
2018-04-08T04:41:39.665Z,8.63
2018-04-08T04:44:07.202Z,5.80
2018-04-08T04:46:34.722Z,29.52
2018-04-08T04:49:02.264Z,15.98
2018-04-08T04:51:29.784Z,11.12
2018-04-08T04:53:57.304Z,7.47
2018-04-08T04:56:24.840Z,5.07
2018-04-08T04:58:52.358Z,6.07
2018-04-08T05:01:19.894Z,8.48
2018-04-08T05:03:48.187Z,6.07
2018-04-08T05:06:16.480Z,7.30
2018-04-08T05:08:44.015Z,4.28
2018-04-08T05:11:12.299Z,10.23
2018-04-08T05:13:39.862Z,3.50
2018-04-08T05:16:07.390Z,9.48
2018-04-08T05:18:34.913Z,6.03
2018-04-08T05:21:02.436Z,4.53
2018-04-08T05:23:30.724Z,5.93
2018-04-08T05:25:58.272Z,5.78
2018-04-08T05:28:25.796Z,5.97
2018-04-08T05:30:53.328Z,5.32
2018-04-08T05:33:20.864Z,6.05
2018-04-08T05:35:48.372Z,4.28
2018-04-08T05:38:15.934Z,7.22
2018-04-08T05:40:43.463Z,3.85
2018-04-08T05:43:10.971Z,8.45
2018-04-08T05:45:39.265Z,3.47
2018-04-08T05:48:06.776Z,8.65
2018-04-08T05:50:34.334Z,14.80
2018-04-08T05:53:01.857Z,4.82
2018-04-08T05:55:29.366Z,6.30
2018-04-08T05:57:56.911Z,5.45
2018-04-08T06:00:24.422Z,7.40
2018-04-08T06:02:51.970Z,7.60
2018-04-08T06:05:20.272Z,10.02
2018-04-08T06:07:47.790Z,5.85
2018-04-08T06:10:16.092Z,6.53
2018-04-08T06:12:43.610Z,5.37
2018-04-08T06:15:11.157Z,7.68
2018-04-08T06:17:38.705Z,6.12
2018-04-08T06:20:06.215Z,5.22
2018-04-08T06:22:34.515Z,3.72
2018-04-08T06:25:02.022Z,5.07
2018-04-08T06:27:29.580Z,12.65
2018-04-08T06:29:57.090Z,4.85
2018-04-08T06:32:24.612Z,7.07
2018-04-08T06:34:52.935Z,4.20
2018-04-08T06:37:20.451Z,4.20
2018-04-08T06:39:48.774Z,6.65
2018-04-08T06:42:16.312Z,3.33
2018-04-08T06:44:43.844Z,5.55
2018-04-08T06:47:12.197Z,3.55
2018-04-08T06:49:39.711Z,3.17
2018-04-08T06:52:07.271Z,4.13
2018-04-08T06:54:34.812Z,4.83
2018-04-08T06:57:02.351Z,4.23
2018-04-08T06:59:31.041Z,3.80
2018-04-08T07:01:59.322Z,3.80
2018-04-08T07:04:27.649Z,3.77
2018-04-08T07:06:55.207Z,3.53
2018-04-08T07:09:22.753Z,12.03
2018-04-08T07:11:50.294Z,5.57
2018-04-08T07:14:17.808Z,4.80
2018-04-08T07:16:46.350Z,5.50
2018-04-08T07:19:13.884Z,3.00
2018-04-08T07:21:42.168Z,5.40
2018-04-08T07:24:09.712Z,3.50
2018-04-08T07:26:38.005Z,4.10
2018-04-08T07:29:05.559Z,4.67
2018-04-08T07:31:33.838Z,3.90
2018-04-08T07:34:02.111Z,3.23
2018-04-08T07:36:30.408Z,3.67
2018-04-08T07:38:57.935Z,6.50
2018-04-08T07:41:26.237Z,5.07
2018-04-08T07:43:53.748Z,9.30
2018-04-08T07:46:22.775Z,2.90
2018-04-08T07:48:51.072Z,3.90
2018-04-08T07:51:18.599Z,2.70
2018-04-08T07:53:46.918Z,2.73
2018-04-08T07:56:14.478Z,6.10
2018-04-08T07:58:41.999Z,3.60
2018-04-08T08:01:10.289Z,3.00
2018-04-08T08:03:37.830Z,2.57
2018-04-08T08:06:06.156Z,3.57
2018-04-08T08:08:33.687Z,10.87
2018-04-08T08:11:01.189Z,2.77
2018-04-08T08:13:28.714Z,4.70
2018-04-08T08:15:56.228Z,4.03
2018-04-08T08:18:23.795Z,10.90
2018-04-08T08:20:51.305Z,5.50
2018-04-08T08:23:18.809Z,2.73
2018-04-08T08:25:47.111Z,12.97
2018-04-08T08:28:15.412Z,3.00
2018-04-08T08:30:42.969Z,4.13
2018-04-08T08:33:10.488Z,3.07
2018-04-08T08:35:38.775Z,3.63
2018-04-08T08:38:07.073Z,3.27
2018-04-08T08:40:34.600Z,2.70
2018-04-08T08:43:02.902Z,5.27
2018-04-08T08:45:30.443Z,5.10
2018-04-08T08:47:58.730Z,10.47
2018-04-08T08:50:27.047Z,4.40
2018-04-08T08:52:54.556Z,4.17
2018-04-08T08:55:22.850Z,4.60
2018-04-08T08:57:50.399Z,12.07
2018-04-08T09:00:18.698Z,3.73
2018-04-08T09:02:46.217Z,5.50
2018-04-08T09:05:14.535Z,5.63
2018-04-08T09:07:42.049Z,10.83
2018-04-08T09:10:09.597Z,4.10
2018-04-08T09:12:37.102Z,5.73
2018-04-08T09:15:04.635Z,4.07
2018-04-08T09:17:32.989Z,3.37
2018-04-08T09:20:03.228Z,4.30
2018-04-08T09:25:37.020Z,7.10
2018-04-08T09:28:04.576Z,5.97
2018-04-08T09:30:32.101Z,8.70
2018-04-08T09:32:59.635Z,9.30
2018-04-08T09:35:27.956Z,7.80
2018-04-08T09:37:55.467Z,6.43
2018-04-08T09:40:23.771Z,11.20
2018-04-08T09:42:51.330Z,6.57
2018-04-08T09:45:18.868Z,6.00
2018-04-08T09:47:47.178Z,10.13
2018-04-08T09:50:14.719Z,6.60
2018-04-08T09:52:43.003Z,7.50
2018-04-08T09:55:10.523Z,11.27
2018-04-08T09:57:38.680Z,10.93
2018-04-08T10:00:06.216Z,4.20
2018-04-08T10:02:33.729Z,4.40
2018-04-08T10:05:02.054Z,16.13
2018-04-08T10:07:29.564Z,4.83
2018-04-08T10:09:58.578Z,4.20
2018-04-08T10:12:26.110Z,21.03
2018-04-08T10:14:54.414Z,9.07
2018-04-08T10:17:21.973Z,8.33
2018-04-08T10:19:49.497Z,9.67
2018-04-08T10:22:17.028Z,9.23
2018-04-08T10:24:44.572Z,5.33
2018-04-08T10:27:12.112Z,3.03
2018-04-08T10:29:39.649Z,7.37
2018-04-08T10:32:07.953Z,5.60
2018-04-08T10:34:35.471Z,5.60
2018-04-08T10:37:03.027Z,5.30
2018-04-08T10:39:30.548Z,5.90
2018-04-08T10:41:58.067Z,7.50
2018-04-08T10:44:26.376Z,2.53
2018-04-08T10:46:53.894Z,8.90
2018-04-08T10:49:22.320Z,14.83
2018-04-08T10:51:49.872Z,3.87
2018-04-08T10:54:17.369Z,4.30
2018-04-08T10:56:44.905Z,6.17
2018-04-08T10:59:12.437Z,15.50
2018-04-08T11:01:39.989Z,2.50
2018-04-08T11:04:07.511Z,7.57
2018-04-08T11:06:35.039Z,9.83
2018-04-08T11:09:02.564Z,12.90
2018-04-08T11:11:30.102Z,8.90
2018-04-08T11:13:58.424Z,6.33
2018-04-08T11:16:25.940Z,3.60
2018-04-08T11:18:54.243Z,5.90
2018-04-08T11:21:21.786Z,3.57
2018-04-08T11:23:50.080Z,8.90
2018-04-08T11:26:17.641Z,5.30
2018-04-08T11:28:45.159Z,6.30
2018-04-08T11:31:12.684Z,3.73
2018-04-08T11:33:40.229Z,10.53
2018-04-08T11:36:07.752Z,9.33
2018-04-08T11:38:36.065Z,13.63
2018-04-08T11:41:03.608Z,10.83
2018-04-08T11:43:31.141Z,12.33
2018-04-08T11:45:59.449Z,18.40
2018-04-08T11:48:26.972Z,6.63
2018-04-08T11:50:54.490Z,12.30
2018-04-08T11:53:22.146Z,9.93
2018-04-08T11:55:49.665Z,7.67
2018-04-08T11:58:17.991Z,14.50
2018-04-08T12:00:45.538Z,11.07
2018-04-08T12:03:13.067Z,9.40
2018-04-08T12:05:41.351Z,84.27
2018-04-08T12:08:08.910Z,189.93
2018-04-08T12:10:36.456Z,320.80
2018-04-08T12:13:04.765Z,94.40
2018-04-08T12:15:32.331Z,22.33
2018-04-08T12:17:59.842Z,9.87
2018-04-08T12:20:28.152Z,19.43
2018-04-08T12:22:55.669Z,12.00
2018-04-08T12:25:23.223Z,49.57
2018-04-08T12:27:50.739Z,20.90
2018-04-08T12:30:18.266Z,3.23
2018-04-08T12:32:46.573Z,15.33
2018-04-08T12:35:14.078Z,8.53
2018-04-08T12:37:41.598Z,18.30
2018-04-08T12:40:09.149Z,6.23
2018-04-08T12:42:36.676Z,12.70
2018-04-08T12:45:04.964Z,7.60
2018-04-08T12:47:32.511Z,4.60
2018-04-08T12:50:00.804Z,4.87
2018-04-08T12:52:28.322Z,13.17
2018-04-08T12:54:55.871Z,4.97
2018-04-08T12:57:23.431Z,4.63
2018-04-08T12:59:50.921Z,5.40
2018-04-08T13:02:19.244Z,7.70
2018-04-08T13:04:46.769Z,9.73
2018-04-08T13:07:17.936Z,6.83
2018-04-08T13:09:51.239Z,6.50
2018-04-08T13:12:18.907Z,10.60
2018-04-08T13:14:46.539Z,7.93
2018-04-08T13:17:15.445Z,6.83
2018-04-08T13:19:43.847Z,15.10
2018-04-08T13:22:11.840Z,12.13
2018-04-08T13:24:39.571Z,10.50
2018-04-08T13:27:07.265Z,7.47
2018-04-08T13:29:34.789Z,5.43
2018-04-08T13:32:03.645Z,4.13
2018-04-08T13:34:31.352Z,20.70
2018-04-08T13:36:59.098Z,9.13
2018-04-08T13:39:27.329Z,9.90
2018-04-08T13:41:55.035Z,9.83
2018-04-08T13:44:22.981Z,12.40
2018-04-08T13:46:51.257Z,13.63
2018-04-08T13:49:20.124Z,13.33
2018-04-08T13:51:49.156Z,8.10
2018-04-08T13:54:16.685Z,8.63
2018-04-08T13:56:44.987Z,10.60
2018-04-08T13:59:12.536Z,12.10
2018-04-08T14:01:40.064Z,12.33
2018-04-08T14:04:07.628Z,12.70
2018-04-08T14:06:35.212Z,12.03
2018-04-08T14:09:02.727Z,13.80
2018-04-08T14:11:30.263Z,20.73
2018-04-08T14:13:57.791Z,14.93
2018-04-08T14:16:25.354Z,8.20
2018-04-08T14:18:52.875Z,15.83
2018-04-08T14:21:20.391Z,10.13
2018-04-08T14:23:47.959Z,15.07
2018-04-08T14:26:15.482Z,10.07
2018-04-08T14:28:43.791Z,4.30
2018-04-08T14:31:11.311Z,12.30
2018-04-08T14:33:39.596Z,6.97
2018-04-08T14:36:07.130Z,20.67
2018-04-08T14:38:35.423Z,13.97
2018-04-08T14:41:03.759Z,7.53
2018-04-08T14:43:31.296Z,8.60
2018-04-08T14:45:58.808Z,18.07
2018-04-08T14:48:27.109Z,10.70
2018-04-08T14:50:54.645Z,5.20
2018-04-08T14:53:24.618Z,7.87
2018-04-08T14:55:52.160Z,15.80
2018-04-08T14:58:19.673Z,6.10
2018-04-08T15:00:47.987Z,12.10
2018-04-08T15:03:15.503Z,4.63
2018-04-08T15:05:43.853Z,6.47
2018-04-08T15:08:11.367Z,11.53
2018-04-08T15:10:38.940Z,14.10
2018-04-08T15:13:07.214Z,11.23
2018-04-08T15:15:34.730Z,4.87
2018-04-08T15:18:02.274Z,8.87
2018-04-08T15:20:29.793Z,17.93
2018-04-08T15:22:57.347Z,10.90
2018-04-08T15:25:24.888Z,14.13
2018-04-08T15:27:53.163Z,19.43
2018-04-08T15:30:21.577Z,10.70
2018-04-08T15:32:50.483Z,15.03
2018-04-08T15:35:18.020Z,21.03
2018-04-08T15:37:45.553Z,5.87
2018-04-08T15:40:13.838Z,10.40
2018-04-08T15:42:41.480Z,11.27
2018-04-08T15:45:09.764Z,15.60
2018-04-08T15:47:38.050Z,19.77
2018-04-08T15:50:06.369Z,14.60
2018-04-08T15:52:33.904Z,19.97
2018-04-08T15:55:01.453Z,18.43
2018-04-08T15:57:28.987Z,11.90
2018-04-08T15:59:57.283Z,7.97
2018-04-08T16:02:25.599Z,10.67
2018-04-08T16:04:53.118Z,12.37
2018-04-08T16:07:21.434Z,6.43
2018-04-08T16:09:48.962Z,10.70
2018-04-08T16:12:16.482Z,8.90
2018-04-08T16:14:44.331Z,8.77
2018-04-08T16:17:11.865Z,11.30
2018-04-08T16:19:39.404Z,5.83
2018-04-08T16:22:06.931Z,10.70
2018-04-08T16:24:35.216Z,8.17
2018-04-08T16:27:03.620Z,14.33
2018-04-08T16:29:31.149Z,8.63
2018-04-08T16:31:59.472Z,15.50
2018-04-08T16:34:27.012Z,6.77
2018-04-08T16:36:54.535Z,6.67
2018-04-08T16:39:22.067Z,7.40
2018-04-08T16:41:49.580Z,11.63
2018-04-08T16:44:17.891Z,8.27
2018-04-08T16:46:45.453Z,4.77
2018-04-08T16:49:12.985Z,9.13
2018-04-08T16:51:40.523Z,5.47
2018-04-08T16:54:08.802Z,14.00
2018-04-08T16:56:37.102Z,6.80
2018-04-08T16:59:04.607Z,9.03
2018-04-08T17:01:32.144Z,8.37
2018-04-08T17:03:59.686Z,11.70
2018-04-08T17:06:27.203Z,8.43
2018-04-08T17:08:55.512Z,8.57
2018-04-08T17:11:23.032Z,6.37
2018-04-08T17:13:50.537Z,16.00
2018-04-08T17:16:18.089Z,10.83
2018-04-08T17:18:45.619Z,10.70
2018-04-08T17:21:13.941Z,11.03
2018-04-08T17:23:41.473Z,8.57
2018-04-08T17:26:09.263Z,7.87
2018-04-08T17:28:36.799Z,20.63
2018-04-08T17:31:04.385Z,12.03
2018-04-08T17:33:31.949Z,13.50
2018-04-08T17:35:59.463Z,12.87
2018-04-08T17:38:27.734Z,8.07
2018-04-08T17:40:56.034Z,19.90
2018-04-08T17:43:23.554Z,10.90
2018-04-08T17:45:51.089Z,6.90
2018-04-08T17:48:18.595Z,12.70
2018-04-08T17:50:47.527Z,12.57
2018-04-08T17:53:15.893Z,11.20
2018-04-08T17:55:43.406Z,6.87
2018-04-08T17:58:10.949Z,9.63
2018-04-08T18:00:38.472Z,6.43
2018-04-08T18:03:05.992Z,9.10
2018-04-08T18:05:34.314Z,11.07
2018-04-08T18:08:01.842Z,7.80
2018-04-08T18:10:30.841Z,8.83
2018-04-08T18:12:58.366Z,8.47
2018-04-08T18:15:25.900Z,3.97
2018-04-08T18:17:53.438Z,10.60
2018-04-08T18:20:20.964Z,8.80
2018-04-08T18:22:49.280Z,8.10
2018-04-08T18:25:16.820Z,10.57
2018-04-08T18:27:44.342Z,13.50
2018-04-08T18:30:11.869Z,10.77
2018-04-08T18:32:39.389Z,7.70
2018-04-08T18:35:06.957Z,11.03
2018-04-08T18:37:34.491Z,5.97
2018-04-08T18:40:02.782Z,7.13
2018-04-08T18:42:30.311Z,7.73
2018-04-08T18:44:57.847Z,6.17
2018-04-08T18:47:25.412Z,14.90
2018-04-08T18:49:52.948Z,10.83
2018-04-08T18:52:20.488Z,11.53
2018-04-08T18:54:48.024Z,11.03
2018-04-08T18:57:16.310Z,37.57
2018-04-08T18:59:44.626Z,7.40
2018-04-08T19:02:12.154Z,17.10
2018-04-08T19:04:39.673Z,8.57
2018-04-08T19:07:07.242Z,12.80
2018-04-08T19:09:35.541Z,5.53
2018-04-08T19:12:03.081Z,7.33
2018-04-08T19:14:37.047Z,16.53
2018-04-08T19:17:04.597Z,9.47
2018-04-08T19:19:32.115Z,8.63
2018-04-08T19:22:00.401Z,14.40
2018-04-08T19:24:28.706Z,7.17
2018-04-08T19:26:56.244Z,8.50
2018-04-08T19:29:23.807Z,5.40
2018-04-08T19:31:51.330Z,11.47
2018-04-08T19:34:18.863Z,11.77
2018-04-08T19:36:46.385Z,3.53
2018-04-08T19:39:13.906Z,15.07
2018-04-08T19:41:41.447Z,6.70
2018-04-08T19:44:08.983Z,11.93
2018-04-08T19:46:36.501Z,12.23
2018-04-08T19:49:04.809Z,6.47
2018-04-08T19:51:32.322Z,8.23
2018-04-08T19:53:59.857Z,9.73
2018-04-08T19:56:27.384Z,13.53
2018-04-08T19:58:54.914Z,3.63
2018-04-08T20:01:23.233Z,17.97
2018-04-08T20:03:50.751Z,4.37
2018-04-08T20:06:19.057Z,7.57
2018-04-08T20:08:46.611Z,6.60
2018-04-08T20:11:14.122Z,4.30
2018-04-08T20:13:41.657Z,5.50
2018-04-08T20:16:09.231Z,4.83
2018-04-08T20:18:36.773Z,8.60
2018-04-08T20:21:04.304Z,4.07
2018-04-08T20:23:31.823Z,5.57
2018-04-08T20:25:59.348Z,8.00
2018-04-08T20:28:26.862Z,5.90
2018-04-08T20:30:55.274Z,4.63
2018-04-08T20:33:22.811Z,3.80
2018-04-08T20:35:50.354Z,3.53
2018-04-08T20:38:18.656Z,5.73
2018-04-08T20:40:46.175Z,10.63
2018-04-08T20:43:14.491Z,4.10
2018-04-08T20:45:42.011Z,16.53
2018-04-08T20:48:09.522Z,7.20
2018-04-08T20:50:37.047Z,5.70
2018-04-08T20:53:05.346Z,8.70
2018-04-08T20:55:32.883Z,11.83
2018-04-08T20:58:01.164Z,6.53
2018-04-08T21:00:29.456Z,5.90
2018-04-08T21:02:56.993Z,7.97
2018-04-08T21:05:25.276Z,5.67
2018-04-08T21:07:52.837Z,6.37
2018-04-08T21:10:20.372Z,8.53
2018-04-08T21:12:47.951Z,8.00
2018-04-08T21:15:15.493Z,8.40
2018-04-08T21:17:43.780Z,9.23
2018-04-08T21:20:12.112Z,10.37
2018-04-08T21:22:39.629Z,7.43
2018-04-08T21:25:07.770Z,12.40
2018-04-08T21:27:35.316Z,12.00
2018-04-08T21:30:02.843Z,7.70
2018-04-08T21:32:30.392Z,3.20
2018-04-08T21:34:57.911Z,9.30
2018-04-08T21:37:25.447Z,7.03
2018-04-08T21:39:53.021Z,2.73
2018-04-08T21:42:20.532Z,4.30
2018-04-08T21:44:48.067Z,3.40
2018-04-08T21:47:16.368Z,13.10
2018-04-08T21:49:43.911Z,7.00
2018-04-08T21:52:11.445Z,5.70
2018-04-08T21:54:39.746Z,5.60
2018-04-08T21:57:07.303Z,3.17
2018-04-08T21:59:34.830Z,5.60
2018-04-08T22:02:02.345Z,4.97
2018-04-08T22:04:29.886Z,9.67
2018-04-08T22:06:57.408Z,14.73
2018-04-08T22:09:24.947Z,4.10
2018-04-08T22:11:52.474Z,10.30
2018-04-08T22:14:19.982Z,6.23
2018-04-08T22:16:47.515Z,5.30
2018-04-08T22:19:15.028Z,5.33
2018-04-08T22:21:42.562Z,4.83
2018-04-08T22:24:10.086Z,7.47
2018-04-08T22:26:37.605Z,11.67
2018-04-08T22:29:05.903Z,7.37
2018-04-08T22:31:33.426Z,6.10
2018-04-08T22:34:01.750Z,4.50
2018-04-08T22:36:29.275Z,3.47
2018-04-08T22:38:56.803Z,6.00
2018-04-08T22:41:24.345Z,3.87
2018-04-08T22:43:51.872Z,5.40
2018-04-08T22:46:19.413Z,2.97
2018-04-08T22:48:47.716Z,6.83
2018-04-08T22:51:15.233Z,8.20
2018-04-08T22:53:43.714Z,2.87
2018-04-08T22:56:11.998Z,5.37
2018-04-08T22:58:40.330Z,3.57
2018-04-08T23:01:07.848Z,8.53
2018-04-08T23:03:35.374Z,6.43
2018-04-08T23:06:02.903Z,4.37
2018-04-08T23:08:30.431Z,2.67
2018-04-08T23:10:57.972Z,5.80
2018-04-08T23:13:26.257Z,3.93
2018-04-08T23:15:54.722Z,6.77
2018-04-08T23:18:23.034Z,5.57
2018-04-08T23:20:50.542Z,11.73
2018-04-08T23:23:18.091Z,11.23
2018-04-08T23:25:45.628Z,16.43
2018-04-08T23:28:13.133Z,9.10
2018-04-08T23:30:41.448Z,5.20
2018-04-08T23:33:08.967Z,7.53
2018-04-08T23:35:37.266Z,5.90
2018-04-08T23:38:04.785Z,9.33
2018-04-08T23:40:32.315Z,5.80
2018-04-08T23:42:59.856Z,8.93
2018-04-08T23:45:27.391Z,3.47
2018-04-08T23:47:55.698Z,6.13
2018-04-08T23:50:23.211Z,7.10
2018-04-08T23:52:51.494Z,10.77
2018-04-08T23:55:19.795Z,6.93
2018-04-08T23:57:47.317Z,10.40
